sensor_id;sensor_type;location;lat;lon;timestamp;pressure;altitude;pressure_sealevel;temperature;humidity
55066;BME280;40964;42.114;24.220;2022-08-21T00:01:05;97206.44;;;19.93;99.15
55066;BME280;40964;42.114;24.220;2022-08-21T00:03:32;97209.22;;;20.01;99.42
55066;BME280;40964;42.114;24.220;2022-08-21T00:05:57;97207.59;;;20.05;98.39
55066;BME280;40964;42.114;24.220;2022-08-21T00:08:23;97188.78;;;19.97;98.68
55066;BME280;40964;42.114;24.220;2022-08-21T00:10:49;97209.47;;;20.05;98.35
55066;BME280;40964;42.114;24.220;2022-08-21T00:13:15;97204.25;;;19.95;97.58
55066;BME280;40964;42.114;24.220;2022-08-21T00:15:42;97205.81;;;19.82;98.74
55066;BME280;40964;42.114;24.220;2022-08-21T00:18:09;97203.75;;;19.93;98.80
55066;BME280;40964;42.114;24.220;2022-08-21T00:20:37;97199.16;;;19.98;98.47
55066;BME280;40964;42.114;24.220;2022-08-21T00:23:06;97188.19;;;20.00;97.82
55066;BME280;40964;42.114;24.220;2022-08-21T00:25:32;97178.38;;;19.95;98.55
55066;BME280;40964;42.114;24.220;2022-08-21T00:27:58;97175.78;;;19.90;97.99
55066;BME280;40964;42.114;24.220;2022-08-21T00:30:25;97178.31;;;19.81;98.05
55066;BME280;40964;42.114;24.220;2022-08-21T00:32:53;97184.16;;;19.83;98.52
55066;BME280;40964;42.114;24.220;2022-08-21T00:35:23;97172.81;;;19.92;98.10
55066;BME280;40964;42.114;24.220;2022-08-21T00:37:49;97173.63;;;19.92;98.50
55066;BME280;40964;42.114;24.220;2022-08-21T00:40:18;97180.19;;;19.81;99.26
55066;BME280;40964;42.114;24.220;2022-08-21T00:42:44;97178.97;;;19.73;99.52
55066;BME280;40964;42.114;24.220;2022-08-21T00:45:11;97179.56;;;19.70;99.96
55066;BME280;40964;42.114;24.220;2022-08-21T00:47:36;97183.22;;;19.74;100.00
55066;BME280;40964;42.114;24.220;2022-08-21T00:50:05;97192.81;;;19.75;100.00
55066;BME280;40964;42.114;24.220;2022-08-21T00:52:32;97193.91;;;19.74;100.00
55066;BME280;40964;42.114;24.220;2022-08-21T00:54:59;97203.13;;;19.82;100.00
55066;BME280;40964;42.114;24.220;2022-08-21T00:57:34;97202.84;;;19.83;100.00
55066;BME280;40964;42.114;24.220;2022-08-21T01:00:05;97208.66;;;19.85;100.00
55066;BME280;40964;42.114;24.220;2022-08-21T01:02:31;97203.44;;;19.80;100.00
55066;BME280;40964;42.114;24.220;2022-08-21T01:04:57;97207.38;;;19.83;100.00
55066;BME280;40964;42.114;24.220;2022-08-21T01:07:22;97206.69;;;19.77;100.00
55066;BME280;40964;42.114;24.220;2022-08-21T01:09:48;97209.91;;;19.74;100.00
55066;BME280;40964;42.114;24.220;2022-08-21T01:12:14;97219.16;;;19.63;100.00
55066;BME280;40964;42.114;24.220;2022-08-21T01:14:40;97200.03;;;19.56;100.00
55066;BME280;40964;42.114;24.220;2022-08-21T01:17:08;97215.34;;;19.69;100.00
55066;BME280;40964;42.114;24.220;2022-08-21T01:19:35;97215.84;;;19.71;100.00
55066;BME280;40964;42.114;24.220;2022-08-21T01:22:01;97219.59;;;19.70;100.00
55066;BME280;40964;42.114;24.220;2022-08-21T01:24:27;97243.22;;;19.77;100.00
55066;BME280;40964;42.114;24.220;2022-08-21T01:26:53;97256.06;;;19.75;100.00
55066;BME280;40964;42.114;24.220;2022-08-21T01:32:12;97219.16;;;19.63;100.00
55066;BME280;40964;42.114;24.220;2022-08-21T01:34:41;97225.50;;;19.67;100.00
55066;BME280;40964;42.114;24.220;2022-08-21T01:37:07;97211.66;;;19.65;100.00
55066;BME280;40964;42.114;24.220;2022-08-21T01:39:33;97195.03;;;19.49;100.00
55066;BME280;40964;42.114;24.220;2022-08-21T01:42:02;97216.44;;;19.44;100.00
55066;BME280;40964;42.114;24.220;2022-08-21T01:44:28;97201.44;;;19.29;100.00
55066;BME280;40964;42.114;24.220;2022-08-21T01:46:55;97189.97;;;19.29;100.00
55066;BME280;40964;42.114;24.220;2022-08-21T01:49:21;97195.44;;;19.19;100.00
55066;BME280;40964;42.114;24.220;2022-08-21T01:51:47;97194.59;;;19.23;100.00
55066;BME280;40964;42.114;24.220;2022-08-21T01:54:12;97211.59;;;19.27;100.00
55066;BME280;40964;42.114;24.220;2022-08-21T01:56:42;97199.94;;;19.23;100.00
55066;BME280;40964;42.114;24.220;2022-08-21T01:59:08;97209.00;;;19.22;100.00
55066;BME280;40964;42.114;24.220;2022-08-21T02:01:34;97208.78;;;19.19;100.00
55066;BME280;40964;42.114;24.220;2022-08-21T02:04:00;97195.50;;;19.14;100.00
55066;BME280;40964;42.114;24.220;2022-08-21T02:06:26;97219.78;;;19.12;100.00
55066;BME280;40964;42.114;24.220;2022-08-21T02:08:52;97216.81;;;19.14;100.00
55066;BME280;40964;42.114;24.220;2022-08-21T02:11:18;97219.66;;;19.22;100.00
55066;BME280;40964;42.114;24.220;2022-08-21T02:13:44;97213.28;;;19.23;100.00
55066;BME280;40964;42.114;24.220;2022-08-21T02:16:10;97209.53;;;19.24;100.00
55066;BME280;40964;42.114;24.220;2022-08-21T02:18:36;97207.84;;;19.28;100.00
55066;BME280;40964;42.114;24.220;2022-08-21T02:21:02;97208.94;;;19.27;100.00
55066;BME280;40964;42.114;24.220;2022-08-21T02:23:28;97203.31;;;19.29;100.00
55066;BME280;40964;42.114;24.220;2022-08-21T02:25:56;97208.88;;;19.33;100.00
55066;BME280;40964;42.114;24.220;2022-08-21T02:28:22;97216.09;;;19.32;100.00
55066;BME280;40964;42.114;24.220;2022-08-21T02:30:49;97221.63;;;19.36;100.00
55066;BME280;40964;42.114;24.220;2022-08-21T02:33:16;97217.94;;;19.32;100.00
55066;BME280;40964;42.114;24.220;2022-08-21T02:35:43;97225.72;;;19.28;100.00
55066;BME280;40964;42.114;24.220;2022-08-21T02:38:14;97229.19;;;19.28;100.00
55066;BME280;40964;42.114;24.220;2022-08-21T02:40:42;97225.38;;;19.35;100.00
55066;BME280;40964;42.114;24.220;2022-08-21T02:43:09;97229.63;;;19.36;100.00
55066;BME280;40964;42.114;24.220;2022-08-21T02:45:35;97243.13;;;19.44;100.00
55066;BME280;40964;42.114;24.220;2022-08-21T02:48:05;97240.09;;;19.51;100.00
55066;BME280;40964;42.114;24.220;2022-08-21T02:50:35;97234.47;;;19.52;100.00
55066;BME280;40964;42.114;24.220;2022-08-21T02:53:01;97237.09;;;19.58;100.00
55066;BME280;40964;42.114;24.220;2022-08-21T02:55:29;97238.22;;;19.51;100.00
55066;BME280;40964;42.114;24.220;2022-08-21T02:57:57;97234.53;;;19.47;100.00
55066;BME280;40964;42.114;24.220;2022-08-21T03:00:25;97232.94;;;19.46;100.00
55066;BME280;40964;42.114;24.220;2022-08-21T03:02:52;97229.94;;;19.53;100.00
55066;BME280;40964;42.114;24.220;2022-08-21T03:05:19;97237.38;;;19.56;100.00
55066;BME280;40964;42.114;24.220;2022-08-21T03:07:46;97234.97;;;19.54;100.00
55066;BME280;40964;42.114;24.220;2022-08-21T03:10:12;97234.53;;;19.47;100.00
55066;BME280;40964;42.114;24.220;2022-08-21T03:12:38;97227.97;;;19.40;100.00
55066;BME280;40964;42.114;24.220;2022-08-21T03:15:06;97224.50;;;19.39;100.00
55066;BME280;40964;42.114;24.220;2022-08-21T03:17:33;97225.75;;;19.47;100.00
55066;BME280;40964;42.114;24.220;2022-08-21T03:19:59;97234.38;;;19.39;100.00
55066;BME280;40964;42.114;24.220;2022-08-21T03:22:26;97238.09;;;19.43;100.00
55066;BME280;40964;42.114;24.220;2022-08-21T03:24:51;97239.59;;;19.49;100.00
55066;BME280;40964;42.114;24.220;2022-08-21T03:27:17;97245.22;;;19.47;100.00
55066;BME280;40964;42.114;24.220;2022-08-21T03:29:42;97242.63;;;19.42;100.00
55066;BME280;40964;42.114;24.220;2022-08-21T03:32:08;97246.78;;;19.48;100.00
55066;BME280;40964;42.114;24.220;2022-08-21T03:34:38;97237.44;;;19.51;100.00
55066;BME280;40964;42.114;24.220;2022-08-21T03:37:05;97237.66;;;19.54;100.00
55066;BME280;40964;42.114;24.220;2022-08-21T03:39:32;97237.94;;;19.53;100.00
55066;BME280;40964;42.114;24.220;2022-08-21T03:41:58;97238.72;;;19.53;100.00
55066;BME280;40964;42.114;24.220;2022-08-21T03:44:25;97232.16;;;19.46;100.00
55066;BME280;40964;42.114;24.220;2022-08-21T03:46:54;97246.25;;;19.51;100.00
55066;BME280;40964;42.114;24.220;2022-08-21T03:49:20;97241.25;;;19.45;100.00
55066;BME280;40964;42.114;24.220;2022-08-21T03:51:46;97244.09;;;19.29;100.00
55066;BME280;40964;42.114;24.220;2022-08-21T03:54:11;97250.47;;;19.34;100.00
55066;BME280;40964;42.114;24.220;2022-08-21T03:56:37;97250.38;;;19.39;100.00
55066;BME280;40964;42.114;24.220;2022-08-21T03:59:03;97244.34;;;19.33;100.00
55066;BME280;40964;42.114;24.220;2022-08-21T04:01:29;97247.78;;;19.34;100.00
55066;BME280;40964;42.114;24.220;2022-08-21T04:03:55;97245.28;;;19.42;100.00
55066;BME280;40964;42.114;24.220;2022-08-21T04:06:20;97248.38;;;19.49;100.00
55066;BME280;40964;42.114;24.220;2022-08-21T04:08:46;97258.25;;;19.49;100.00
55066;BME280;40964;42.114;24.220;2022-08-21T04:11:11;97259.72;;;19.41;100.00
55066;BME280;40964;42.114;24.220;2022-08-21T04:13:37;97258.09;;;19.40;100.00
55066;BME280;40964;42.114;24.220;2022-08-21T04:16:04;97251.72;;;19.41;100.00
55066;BME280;40964;42.114;24.220;2022-08-21T04:18:29;97263.09;;;19.47;100.00
55066;BME280;40964;42.114;24.220;2022-08-21T04:20:57;97258.53;;;19.47;100.00
55066;BME280;40964;42.114;24.220;2022-08-21T04:23:23;97256.47;;;19.44;100.00
55066;BME280;40964;42.114;24.220;2022-08-21T04:25:50;97257.31;;;19.40;100.00
55066;BME280;40964;42.114;24.220;2022-08-21T04:28:16;97267.34;;;19.48;100.00
55066;BME280;40964;42.114;24.220;2022-08-21T04:30:41;97253.50;;;19.46;100.00
55066;BME280;40964;42.114;24.220;2022-08-21T04:33:07;97258.16;;;19.59;100.00
55066;BME280;40964;42.114;24.220;2022-08-21T04:35:33;97253.94;;;19.53;100.00
55066;BME280;40964;42.114;24.220;2022-08-21T04:37:59;97240.59;;;19.53;100.00
55066;BME280;40964;42.114;24.220;2022-08-21T04:40:26;97247.75;;;19.58;100.00
55066;BME280;40964;42.114;24.220;2022-08-21T04:43:00;97235.22;;;19.58;100.00
55066;BME280;40964;42.114;24.220;2022-08-21T04:45:33;97245.63;;;19.60;100.00
55066;BME280;40964;42.114;24.220;2022-08-21T04:48:00;97238.13;;;19.62;100.00
55066;BME280;40964;42.114;24.220;2022-08-21T04:50:36;97232.59;;;19.53;100.00
55066;BME280;40964;42.114;24.220;2022-08-21T04:53:11;97242.97;;;19.60;100.00
55066;BME280;40964;42.114;24.220;2022-08-21T04:55:39;97242.09;;;19.64;100.00
55066;BME280;40964;42.114;24.220;2022-08-21T04:58:08;97243.09;;;19.68;100.00
55066;BME280;40964;42.114;24.220;2022-08-21T05:00:34;97246.78;;;19.72;100.00
55066;BME280;40964;42.114;24.220;2022-08-21T05:03:00;97241.13;;;19.74;100.00
55066;BME280;40964;42.114;24.220;2022-08-21T05:05:28;97247.75;;;19.76;100.00
55066;BME280;40964;42.114;24.220;2022-08-21T05:07:55;97236.75;;;19.64;100.00
55066;BME280;40964;42.114;24.220;2022-08-21T05:10:21;97237.63;;;19.78;100.00
55066;BME280;40964;42.114;24.220;2022-08-21T05:12:47;97246.13;;;19.80;100.00
55066;BME280;40964;42.114;24.220;2022-08-21T05:15:14;97239.69;;;19.81;100.00
55066;BME280;40964;42.114;24.220;2022-08-21T05:17:40;97241.72;;;19.90;100.00
55066;BME280;40964;42.114;24.220;2022-08-21T05:20:07;97238.03;;;19.85;100.00
55066;BME280;40964;42.114;24.220;2022-08-21T05:22:33;97239.69;;;19.81;100.00
55066;BME280;40964;42.114;24.220;2022-08-21T05:24:59;97233.06;;;19.79;100.00
55066;BME280;40964;42.114;24.220;2022-08-21T05:27:25;97225.13;;;19.74;100.00
55066;BME280;40964;42.114;24.220;2022-08-21T05:29:50;97232.19;;;19.65;100.00
55066;BME280;40964;42.114;24.220;2022-08-21T05:32:16;97228.06;;;19.53;100.00
55066;BME280;40964;42.114;24.220;2022-08-21T05:34:42;97233.69;;;19.52;100.00
55066;BME280;40964;42.114;24.220;2022-08-21T05:37:11;97231.56;;;19.49;100.00
55066;BME280;40964;42.114;24.220;2022-08-21T05:39:37;97234.72;;;19.56;100.00
55066;BME280;40964;42.114;24.220;2022-08-21T05:42:02;97238.63;;;19.64;100.00
55066;BME280;40964;42.114;24.220;2022-08-21T05:44:28;97241.72;;;19.71;100.00
55066;BME280;40964;42.114;24.220;2022-08-21T05:46:53;97245.78;;;19.68;100.00
55066;BME280;40964;42.114;24.220;2022-08-21T05:49:19;97243.91;;;19.69;100.00
55066;BME280;40964;42.114;24.220;2022-08-21T05:51:45;97246.34;;;19.65;100.00
55066;BME280;40964;42.114;24.220;2022-08-21T05:54:10;97215.03;;;19.52;100.00
55066;BME280;40964;42.114;24.220;2022-08-21T05:56:36;97237.03;;;19.81;100.00
55066;BME280;40964;42.114;24.220;2022-08-21T05:59:02;97249.44;;;19.91;100.00
55066;BME280;40964;42.114;24.220;2022-08-21T06:01:28;97225.13;;;19.93;100.00
55066;BME280;40964;42.114;24.220;2022-08-21T06:03:53;97232.41;;;20.06;100.00
55066;BME280;40964;42.114;24.220;2022-08-21T06:06:19;97239.81;;;20.09;100.00
55066;BME280;40964;42.114;24.220;2022-08-21T06:08:44;97232.66;;;20.23;100.00
55066;BME280;40964;42.114;24.220;2022-08-21T06:11:10;97240.28;;;20.30;100.00
55066;BME280;40964;42.114;24.220;2022-08-21T06:13:37;97237.22;;;20.36;100.00
55066;BME280;40964;42.114;24.220;2022-08-21T06:16:04;97238.81;;;20.37;100.00
55066;BME280;40964;42.114;24.220;2022-08-21T06:18:31;97242.91;;;20.49;100.00
55066;BME280;40964;42.114;24.220;2022-08-21T06:20:57;97229.78;;;20.52;99.57
55066;BME280;40964;42.114;24.220;2022-08-21T06:23:22;97224.63;;;20.56;98.77
55066;BME280;40964;42.114;24.220;2022-08-21T06:25:48;97229.41;;;20.59;96.69
55066;BME280;40964;42.114;24.220;2022-08-21T06:28:13;97226.06;;;20.67;96.96
55066;BME280;40964;42.114;24.220;2022-08-21T06:30:39;97231.19;;;20.63;95.43
55066;BME280;40964;42.114;24.220;2022-08-21T06:33:05;97230.88;;;20.65;95.50
55066;BME280;40964;42.114;24.220;2022-08-21T06:35:32;97235.06;;;20.71;95.32
55066;BME280;40964;42.114;24.220;2022-08-21T06:37:58;97234.16;;;20.76;94.88
55066;BME280;40964;42.114;24.220;2022-08-21T06:40:24;97227.16;;;20.80;94.40
55066;BME280;40964;42.114;24.220;2022-08-21T06:42:50;97234.09;;;20.94;94.89
55066;BME280;40964;42.114;24.220;2022-08-21T06:45:16;97231.91;;;20.96;93.39
55066;BME280;40964;42.114;24.220;2022-08-21T06:47:41;97234.66;;;20.91;92.39
55066;BME280;40964;42.114;24.220;2022-08-21T06:50:08;97239.03;;;21.01;93.18
55066;BME280;40964;42.114;24.220;2022-08-21T06:52:35;97233.78;;;21.10;93.59
55066;BME280;40964;42.114;24.220;2022-08-21T06:55:00;97232.00;;;20.91;90.65
55066;BME280;40964;42.114;24.220;2022-08-21T06:57:28;97242.69;;;20.91;91.27
55066;BME280;40964;42.114;24.220;2022-08-21T06:59:54;97236.78;;;20.94;93.26
55066;BME280;40964;42.114;24.220;2022-08-21T07:02:19;97233.38;;;21.03;93.18
55066;BME280;40964;42.114;24.220;2022-08-21T07:04:45;97241.59;;;20.92;94.64
55066;BME280;40964;42.114;24.220;2022-08-21T07:07:10;97247.75;;;20.93;95.34
55066;BME280;40964;42.114;24.220;2022-08-21T07:09:36;97246.34;;;20.82;94.33
55066;BME280;40964;42.114;24.220;2022-08-21T07:12:02;97244.56;;;20.77;95.46
55066;BME280;40964;42.114;24.220;2022-08-21T07:14:28;97245.38;;;20.78;95.20
55066;BME280;40964;42.114;24.220;2022-08-21T07:16:53;97247.63;;;20.84;95.91
55066;BME280;40964;42.114;24.220;2022-08-21T07:19:21;97246.75;;;20.89;94.73
55066;BME280;40964;42.114;24.220;2022-08-21T07:21:47;97242.69;;;20.91;95.23
55066;BME280;40964;42.114;24.220;2022-08-21T07:24:12;97240.03;;;20.91;93.86
55066;BME280;40964;42.114;24.220;2022-08-21T07:26:38;97239.53;;;20.89;93.82
55066;BME280;40964;42.114;24.220;2022-08-21T07:29:04;97244.75;;;20.67;92.58
55066;BME280;40964;42.114;24.220;2022-08-21T07:31:30;97249.41;;;20.75;93.84
55066;BME280;40964;42.114;24.220;2022-08-21T07:33:56;97249.31;;;20.80;92.53
55066;BME280;40964;42.114;24.220;2022-08-21T07:36:21;97239.13;;;20.82;92.54
55066;BME280;40964;42.114;24.220;2022-08-21T07:38:47;97250.53;;;20.88;92.74
55066;BME280;40964;42.114;24.220;2022-08-21T07:41:16;97245.19;;;20.88;92.80
55066;BME280;40964;42.114;24.220;2022-08-21T07:43:42;97237.47;;;20.86;92.94
55066;BME280;40964;42.114;24.220;2022-08-21T07:46:07;97245.38;;;20.91;93.48
55066;BME280;40964;42.114;24.220;2022-08-21T07:48:33;97232.69;;;20.83;94.53
55066;BME280;40964;42.114;24.220;2022-08-21T07:51:01;97232.88;;;20.73;93.76
55066;BME280;40964;42.114;24.220;2022-08-21T07:53:27;97228.94;;;20.71;94.68
55066;BME280;40964;42.114;24.220;2022-08-21T07:55:57;97238.94;;;20.79;96.09
55066;BME280;40964;42.114;24.220;2022-08-21T07:58:22;97244.16;;;20.70;95.65
55066;BME280;40964;42.114;24.220;2022-08-21T08:00:48;97237.66;;;20.76;95.76
55066;BME280;40964;42.114;24.220;2022-08-21T08:03:14;97228.31;;;20.74;93.15
55066;BME280;40964;42.114;24.220;2022-08-21T08:05:40;97228.22;;;20.65;94.78
55066;BME280;40964;42.114;24.220;2022-08-21T08:08:05;97226.06;;;20.67;95.04
55066;BME280;40964;42.114;24.220;2022-08-21T08:10:31;97217.81;;;20.50;93.82
55066;BME280;40964;42.114;24.220;2022-08-21T08:12:57;97229.78;;;20.66;93.55
55066;BME280;40964;42.114;24.220;2022-08-21T08:15:25;97225.84;;;20.63;94.24
55066;BME280;40964;42.114;24.220;2022-08-21T08:17:50;97222.25;;;20.54;95.56
55066;BME280;40964;42.114;24.220;2022-08-21T08:20:17;97217.53;;;20.65;97.08
55066;BME280;40964;42.114;24.220;2022-08-21T08:22:43;97218.94;;;20.76;96.58
55066;BME280;40964;42.114;24.220;2022-08-21T08:25:11;97220.22;;;20.79;94.09
55066;BME280;40964;42.114;24.220;2022-08-21T08:27:37;97224.66;;;20.83;93.31
55066;BME280;40964;42.114;24.220;2022-08-21T08:30:05;97214.78;;;20.70;91.99
55066;BME280;40964;42.114;24.220;2022-08-21T08:32:31;97210.81;;;20.67;94.75
55066;BME280;40964;42.114;24.220;2022-08-21T08:34:56;97209.00;;;20.63;95.58
55066;BME280;40964;42.114;24.220;2022-08-21T08:37:22;97203.47;;;20.73;97.39
55066;BME280;40964;42.114;24.220;2022-08-21T08:39:47;97198.25;;;20.82;96.32
55066;BME280;40964;42.114;24.220;2022-08-21T08:42:24;97193.13;;;20.85;97.53
55066;BME280;40964;42.114;24.220;2022-08-21T08:44:57;97201.31;;;20.89;97.39
55066;BME280;40964;42.114;24.220;2022-08-21T08:47:25;97193.81;;;20.77;97.46
55066;BME280;40964;42.114;24.220;2022-08-21T08:50:03;97189.91;;;20.83;97.91
55066;BME280;40964;42.114;24.220;2022-08-21T08:52:30;97187.66;;;20.90;99.28
55066;BME280;40964;42.114;24.220;2022-08-21T08:55:05;97181.91;;;20.97;98.61
55066;BME280;40964;42.114;24.220;2022-08-21T08:57:32;97182.41;;;20.99;97.26
55066;BME280;40964;42.114;24.220;2022-08-21T09:00:01;97172.69;;;21.03;97.35
55066;BME280;40964;42.114;24.220;2022-08-21T09:02:28;97172.69;;;21.03;96.72
55066;BME280;40964;42.114;24.220;2022-08-21T09:04:55;97165.34;;;21.09;96.82
55066;BME280;40964;42.114;24.220;2022-08-21T09:07:42;97173.06;;;21.10;96.79
55066;BME280;40964;42.114;24.220;2022-08-21T09:10:25;97180.72;;;21.03;97.29
55066;BME280;40964;42.114;24.220;2022-08-21T09:13:22;97169.41;;;21.06;97.52
55066;BME280;40964;42.114;24.220;2022-08-21T09:16:19;97161.22;;;20.89;96.96
55066;BME280;40964;42.114;24.220;2022-08-21T09:22:39;97164.56;;;21.08;97.59
55066;BME280;40964;42.114;24.220;2022-08-21T09:25:27;97164.38;;;20.91;97.37
55066;BME280;40964;42.114;24.220;2022-08-21T09:27:53;97161.72;;;21.05;98.01
55066;BME280;40964;42.114;24.220;2022-08-21T09:30:25;97165.25;;;21.14;97.16
55066;BME280;40964;42.114;24.220;2022-08-21T09:32:51;97164.78;;;21.12;97.85
55066;BME280;40964;42.114;24.220;2022-08-21T09:35:21;97159.59;;;21.02;97.82
55066;BME280;40964;42.114;24.220;2022-08-21T09:37:57;97158.34;;;20.99;95.87
55066;BME280;40964;42.114;24.220;2022-08-21T09:40:44;97153.91;;;20.81;96.29
55066;BME280;40964;42.114;24.220;2022-08-21T09:43:23;97164.59;;;20.81;94.98
55066;BME280;40964;42.114;24.220;2022-08-21T09:46:06;97161.50;;;21.01;95.85
55066;BME280;40964;42.114;24.220;2022-08-21T09:48:48;97163.28;;;21.06;93.91
55066;BME280;40964;42.114;24.220;2022-08-21T09:51:23;97156.81;;;21.20;93.98
55066;BME280;40964;42.114;24.220;2022-08-21T09:56:37;97162.00;;;21.53;91.83
55066;BME280;40964;42.114;24.220;2022-08-21T09:59:33;97151.22;;;21.44;88.74
55066;BME280;40964;42.114;24.220;2022-08-21T10:02:30;97165.13;;;21.69;89.29
55066;BME280;40964;42.114;24.220;2022-08-21T10:04:59;97161.00;;;21.85;88.62
55066;BME280;40964;42.114;24.220;2022-08-21T10:07:29;97161.84;;;21.94;87.68
55066;BME280;40964;42.114;24.220;2022-08-21T10:10:01;97156.50;;;22.17;89.71
55066;BME280;40964;42.114;24.220;2022-08-21T10:12:36;97147.88;;;22.20;85.62
55066;BME280;40964;42.114;24.220;2022-08-21T10:15:28;97156.13;;;22.32;87.58
55066;BME280;40964;42.114;24.220;2022-08-21T10:18:14;97151.53;;;22.32;87.40
55066;BME280;40964;42.114;24.220;2022-08-21T10:20:49;97151.09;;;22.08;86.17
55066;BME280;40964;42.114;24.220;2022-08-21T10:31:50;97168.41;;;21.88;87.76
55066;BME280;40964;42.114;24.220;2022-08-21T10:40:07;97156.44;;;21.86;88.34
55066;BME280;40964;42.114;24.220;2022-08-21T10:43:02;97152.06;;;21.90;88.56
55066;BME280;40964;42.114;24.220;2022-08-21T10:48:08;97150.94;;;21.91;88.04
55066;BME280;40964;42.114;24.220;2022-08-21T10:50:55;97157.09;;;21.91;88.60
55066;BME280;40964;42.114;24.220;2022-08-21T10:56:01;97148.78;;;21.93;90.53
55066;BME280;40964;42.114;24.220;2022-08-21T10:58:36;97158.88;;;21.96;90.36
55066;BME280;40964;42.114;24.220;2022-08-21T11:01:16;97150.34;;;21.94;88.53
55066;BME280;40964;42.114;24.220;2022-08-21T11:03:53;97137.09;;;21.89;88.33
55066;BME280;40964;42.114;24.220;2022-08-21T11:06:27;97150.34;;;21.94;88.87
55066;BME280;40964;42.114;24.220;2022-08-21T11:09:12;97149.84;;;21.92;88.75
55066;BME280;40964;42.114;24.220;2022-08-21T11:17:05;97143.84;;;21.86;91.32
55066;BME280;40964;42.114;24.220;2022-08-21T11:19:43;97136.72;;;21.81;90.23
55066;BME280;40964;42.114;24.220;2022-08-21T11:22:25;97149.31;;;22.03;93.87
55066;BME280;40964;42.114;24.220;2022-08-21T11:25:07;97137.81;;;22.03;89.46
55066;BME280;40964;42.114;24.220;2022-08-21T11:27:43;97144.75;;;22.04;89.96
55066;BME280;40964;42.114;24.220;2022-08-21T11:30:10;97134.72;;;22.09;88.96
55066;BME280;40964;42.114;24.220;2022-08-21T11:35:52;97132.03;;;22.09;90.68
55066;BME280;40964;42.114;24.220;2022-08-21T11:38:28;97137.00;;;22.25;92.43
55066;BME280;40964;42.114;24.220;2022-08-21T11:57:17;97115.75;;;22.28;88.78
55066;BME280;40964;42.114;24.220;2022-08-21T12:02:21;97116.84;;;22.27;87.86
55066;BME280;40964;42.114;24.220;2022-08-21T12:04:56;97112.66;;;22.44;89.80
55066;BME280;40964;42.114;24.220;2022-08-21T12:10:05;97116.75;;;22.41;90.46
55066;BME280;40964;42.114;24.220;2022-08-21T12:12:36;97109.38;;;22.47;90.43
55066;BME280;40964;42.114;24.220;2022-08-21T12:18:20;97109.88;;;22.57;89.76
55066;BME280;40964;42.114;24.220;2022-08-21T12:21:05;97110.81;;;22.61;90.18
55066;BME280;40964;42.114;24.220;2022-08-21T12:28:39;97116.84;;;22.67;88.97
55066;BME280;40964;42.114;24.220;2022-08-21T12:31:17;97115.13;;;22.71;89.09
55066;BME280;40964;42.114;24.220;2022-08-21T12:33:51;97115.78;;;22.77;90.00
55066;BME280;40964;42.114;24.220;2022-08-21T12:36:20;97113.09;;;22.77;89.56
55066;BME280;40964;42.114;24.220;2022-08-21T12:38:57;97124.16;;;22.84;87.74
55066;BME280;40964;42.114;24.220;2022-08-21T12:41:31;97121.81;;;22.91;87.28
55066;BME280;40964;42.114;24.220;2022-08-21T12:44:07;97120.72;;;22.92;87.56
55066;BME280;40964;42.114;24.220;2022-08-21T12:46:39;97115.66;;;22.90;88.77
55066;BME280;40964;42.114;24.220;2022-08-21T12:52:01;97116.75;;;22.89;89.22
55066;BME280;40964;42.114;24.220;2022-08-21T12:54:31;97104.78;;;22.96;88.09
55066;BME280;40964;42.114;24.220;2022-08-21T12:57:04;97113.94;;;22.94;87.95
55066;BME280;40964;42.114;24.220;2022-08-21T12:59:31;97107.63;;;22.99;88.05
55066;BME280;40964;42.114;24.220;2022-08-21T13:02:00;97109.06;;;23.05;88.87
55066;BME280;40964;42.114;24.220;2022-08-21T13:04:38;97102.44;;;23.03;87.59
55066;BME280;40964;42.114;24.220;2022-08-21T13:07:11;97092.31;;;22.91;86.56
55066;BME280;40964;42.114;24.220;2022-08-21T13:10:14;97096.53;;;22.75;85.63
55066;BME280;40964;42.114;24.220;2022-08-21T13:12:41;97096.84;;;22.82;86.96
55066;BME280;40964;42.114;24.220;2022-08-21T13:15:08;97099.03;;;22.71;86.67
55066;BME280;40964;42.114;24.220;2022-08-21T13:17:36;97094.94;;;22.74;87.43
55066;BME280;40964;42.114;24.220;2022-08-21T13:22:31;97083.28;;;22.78;89.82
55066;BME280;40964;42.114;24.220;2022-08-21T13:24:57;97081.53;;;22.82;89.74
55066;BME280;40964;42.114;24.220;2022-08-21T13:27:26;97071.44;;;22.79;87.67
55066;BME280;40964;42.114;24.220;2022-08-21T13:30:17;97073.50;;;22.74;88.31
55066;BME280;40964;42.114;24.220;2022-08-21T13:32:45;97073.19;;;22.75;88.46
55066;BME280;40964;42.114;24.220;2022-08-21T13:35:18;97074.59;;;22.73;87.72
55066;BME280;40964;42.114;24.220;2022-08-21T13:37:46;97080.13;;;22.76;87.23
55066;BME280;40964;42.114;24.220;2022-08-21T13:40:23;97085.50;;;22.76;86.63
55066;BME280;40964;42.114;24.220;2022-08-21T13:42:49;97084.22;;;22.82;86.55
55066;BME280;40964;42.114;24.220;2022-08-21T13:45:26;97080.75;;;22.82;85.09
55066;BME280;40964;42.114;24.220;2022-08-21T13:47:53;97075.09;;;22.75;86.81
55066;BME280;40964;42.114;24.220;2022-08-21T13:50:21;97068.78;;;22.79;87.04
55066;BME280;40964;42.114;24.220;2022-08-21T13:53:03;97066.59;;;22.90;87.67
55066;BME280;40964;42.114;24.220;2022-08-21T13:55:41;97065.16;;;22.84;88.16
55066;BME280;40964;42.114;24.220;2022-08-21T13:58:08;97062.78;;;22.82;88.41
55066;BME280;40964;42.114;24.220;2022-08-21T14:00:44;97063.41;;;22.79;88.91
55066;BME280;40964;42.114;24.220;2022-08-21T14:03:11;97062.19;;;22.94;90.06
55066;BME280;40964;42.114;24.220;2022-08-21T14:05:48;97060.13;;;23.00;89.51
55066;BME280;40964;42.114;24.220;2022-08-21T14:08:21;97049.41;;;23.08;89.70